Time;durP1;ratioP1;P1;durP2;ratioP2;P2;SDS_P1;SDS_P2;PMS_P1;PMS_P2;Temp;Humidity;BMP_temperature;BMP_pressure;BME280_temperature;BME280_humidity;BME280_pressure;Samples;Min_cycle;Max_cycle;Signal;HPM_P1;HPM_P2
2021/12/26 00:00:21;;;;;;;;;;;;;;;;;;1037248;28;1175;-41
2021/12/26 00:01:03;;;;;;;;;;;;;;;;;;1037080;28;1009;-41
2021/12/26 00:01:33;;;;;;;;;;;;;;;;;;1037330;28;1092;-41
2021/12/26 00:02:04;;;;;;;;;;;;;;;;;;1038348;28;1096;-41
2021/12/26 00:02:34;;;;;;;;;;;;;;;;;;1038674;28;1092;-41
2021/12/26 00:03:05;;;;;;;;;;;;;;;;;;1037881;28;1152;-41
2021/12/26 00:03:37;;;;;;;;;;;;;;;;;;1037191;28;1164;-41
2021/12/26 00:04:07;;;;;;;;;;;;;;;;;;1037403;28;1029;-41
2021/12/26 00:04:38;;;;;;;;;;;;;;;;;;1038422;28;1102;-42
2021/12/26 00:05:09;;;;;;;;;;;;;;;;;;1037918;28;1754;-42
2021/12/26 00:05:39;;;;;;;;;;;;;;;;;;1037091;28;1176;-41
2021/12/26 00:06:12;;;;;;;;;;;;;;;;;;1037064;28;1184;-42
2021/12/26 00:06:43;;;;;;;;;;;;;;;;;;1038262;28;1125;-42
2021/12/26 00:07:13;;;;;;;;;;;;;;;;;;1038119;28;1160;-42
2021/12/26 00:07:44;;;;;;;;;;;;;;;;;;1037568;28;1077;-42
2021/12/26 00:08:14;;;;;;;;;;;;;;;;;;1037185;28;1096;-40
2021/12/26 00:08:45;;;;;;;;;;;;;;;;;;1038248;28;1017;-41
2021/12/26 00:09:16;;;;;;;;;;;;;;;;;;1038473;28;1247;-42
2021/12/26 00:09:46;;;;;;;;;;;;;;;;;;1038162;28;1136;-41
2021/12/26 00:10:20;;;;;;;;;;;;;;;;;;1037199;28;1172;-42
2021/12/26 00:10:51;;;;;;;;;;;;;;;;;;1037543;28;1077;-41
2021/12/26 00:11:21;;;;;;;;;;;;;;;;;;1038536;28;1073;-42
2021/12/26 00:11:52;;;;;;;;;;;;;;;;;;1038751;28;1074;-42
2021/12/26 00:12:22;;;;;;;;;;;;;;;;;;1037386;28;1148;-42
2021/12/26 00:12:53;;;;;;;;;;;;;;;;;;1037161;28;1128;-42
2021/12/26 00:13:23;;;;;;;;;;;;;;;;;;1038466;28;1378;-42
2021/12/26 00:13:55;;;;;;;;;;;;;;;;;;1038450;28;1128;-42
2021/12/26 00:14:25;;;;;;;;;;;;;;;;;;1037870;28;1324;-41
2021/12/26 00:14:56;;;;;;;;;;;;;;;;;;1037123;28;1906;-42
2021/12/26 00:15:27;;;;;;;;;;;;;;;;;;1039723;28;1181;-42
2021/12/26 00:15:59;;;;;;;;;;;;;;;;;;1036838;28;1085;-42
2021/12/26 00:16:30;;;;;;;;;;;;;;;;;;1037263;28;1151;-41
2021/12/26 00:17:00;;;;;;;;;;;;;;;;;;1038465;28;1090;-41
2021/12/26 00:17:31;;;;;;;;;;;;;;;;;;1035965;28;1156;-41
2021/12/26 00:18:02;;;;;;;;;;;;;;;;;;1037374;28;1041;-41
2021/12/26 00:18:32;;;;;;;;;;;;;;;;;;1041099;28;1224;-41
2021/12/26 00:19:03;;;;;;;;;;;;;;;;;;1042269;28;1104;-42
2021/12/26 00:19:34;;;;;;;;;;;;;;;;;;1042465;28;1097;-41
2021/12/26 00:20:06;;;;;;;;;;;;;;;;;;1041379;28;1222;-41
2021/12/26 00:20:37;;;;;;;;;;;;;;;;;;1037186;28;1088;-41
2021/12/26 00:21:08;;;;;;;;;;;;;;;;;;1037931;28;1148;-40
2021/12/26 00:21:38;;;;;;;;;;;;;;;;;;1038666;28;1144;-42
2021/12/26 00:22:09;;;;;;;;;;;;;;;;;;1038423;28;1077;-42
2021/12/26 00:22:40;;;;;;;;;;;;;;;;;;1037388;28;1088;-42
2021/12/26 00:23:10;;;;;;;;;;;;;;;;;;1038925;28;1089;-41
2021/12/26 00:23:41;;;;;;;;;;;;;;;;;;1037582;28;1120;-41
2021/12/26 00:24:11;;;;;;;;;;;;;;;;;;1037206;28;1175;-41
2021/12/26 00:24:42;;;;;;;;;;;;;;;;;;1038731;28;993;-41
2021/12/26 00:25:13;;;;;;;;;;;;;;;;;;1038711;28;1160;-41
2021/12/26 00:25:44;;;;;;;;;;;;;;;;;;1037677;28;1136;-41
2021/12/26 00:26:15;;;;;;;;;;;;;;;;;;1037204;28;1084;-41
2021/12/26 00:26:46;;;;;;;;;;;;;;;;;;1039693;28;1337;-41
2021/12/26 00:27:18;;;;;;;;;;;;;;;;;;1039553;28;1085;-41
2021/12/26 00:27:49;;;;;;;;;;;;;;;;;;1039780;28;1082;-41
2021/12/26 00:28:20;;;;;;;;;;;;;;;;;;1035672;28;1233;-41
2021/12/26 00:28:50;;;;;;;;;;;;;;;;;;1039805;28;979;-41
2021/12/26 00:29:21;;;;;;;;;;;;;;;;;;1036922;28;1113;-41
2021/12/26 00:29:52;;;;;;;;;;;;;;;;;;1036897;28;1286;-42
2021/12/26 00:30:23;;;;;;;;;;;;;;;;;;1038515;28;1121;-41
2021/12/26 00:30:53;;;;;;;;;;;;;;;;;;1038526;28;1149;-41
2021/12/26 00:31:24;;;;;;;;;;;;;;;;;;1035543;28;1259;-41
2021/12/26 00:31:55;;;;;;;;;;;;;;;;;;1035734;28;999;-41
2021/12/26 00:32:26;;;;;;;;;;;;;;;;;;1031362;28;1102;-41
2021/12/26 00:32:56;;;;;;;;;;;;;;;;;;1031607;28;1232;-42
2021/12/26 00:33:27;;;;;;;;;;;;;;;;;;1033554;28;1156;-41
2021/12/26 00:33:58;;;;;;;;;;;;;;;;;;1034379;28;1185;-41
2021/12/26 00:34:28;;;;;;;;;;;;;;;;;;1033771;28;1136;-41
2021/12/26 00:34:59;;;;;;;;;;;;;;;;;;1035441;28;1914;-41
2021/12/26 00:35:30;;;;;;;;;;;;;;;;;;1031385;28;1233;-41
2021/12/26 00:36:02;;;;;;;;;;;;;;;;;;1035716;28;1137;-41
2021/12/26 00:36:32;;;;;;;;;;;;;;;;;;1038192;28;1039;-41
2021/12/26 00:37:03;;;;;;;;;;;;;;;;;;1041355;28;1026;-41
2021/12/26 00:37:33;;;;;;;;;;;;;;;;;;1040699;28;1065;-42
2021/12/26 00:38:04;;;;;;;;;;;;;;;;;;1038286;28;1040;-42
2021/12/26 00:38:35;;;;;;;;;;;;;;;;;;1039021;28;1187;-42
2021/12/26 00:39:05;;;;;;;;;;;;;;;;;;1038161;28;1075;-42
2021/12/26 00:39:36;;;;;;;;;;;;;;;;;;1038731;28;994;-42
2021/12/26 00:40:08;;;;;;;;;;;;;;;;;;1041784;28;1199;-42
2021/12/26 00:40:38;;;;;;;;;;;;;;;;;;1041010;28;1033;-41
2021/12/26 00:41:09;;;;;;;;;;;;;;;;;;1041395;28;1164;-42
2021/12/26 00:41:39;;;;;;;;;;;;;;;;;;1042188;28;1133;-42
2021/12/26 00:42:10;;;;;;;;;;;;;;;;;;1038596;28;1013;-42
2021/12/26 00:42:40;;;;;;;;;;;;;;;;;;1037417;28;997;-42
2021/12/26 00:43:11;;;;;;;;;;;;;;;;;;1037155;28;1072;-42
2021/12/26 00:43:42;;;;;;;;;;;;;;;;;;1043817;28;1297;-42
2021/12/26 00:44:13;;;;;;;;;;;;;;;;;;1040969;28;1176;-42
2021/12/26 00:44:43;;;;;;;;;;;;;;;;;;1042220;28;1053;-42
2021/12/26 00:45:14;;;;;;;;;;;;;;;;;;1042316;28;1334;-42
2021/12/26 00:45:45;;;;;;;;;;;;;;;;;;1039726;28;1053;-42
2021/12/26 00:46:16;;;;;;;;;;;;;;;;;;1042910;28;1235;-42
2021/12/26 00:46:46;;;;;;;;;;;;;;;;;;1041657;28;1168;-42
2021/12/26 00:47:16;;;;;;;;;;;;;;;;;;1036521;28;1147;-42
2021/12/26 00:47:47;;;;;;;;;;;;;;;;;;1039596;28;1507;-42
2021/12/26 00:48:17;;;;;;;;;;;;;;;;;;1039402;28;1128;-42
2021/12/26 00:48:47;;;;;;;;;;;;;;;;;;1039556;28;1154;-42
2021/12/26 00:49:18;;;;;;;;;;;;;;;;;;1039372;28;1271;-41
2021/12/26 00:49:49;;;;;;;;;;;;;;;;;;1035995;28;771;-35
2021/12/26 00:50:21;;;;;;;;;;;;;;;;;;1036974;28;1106;-37
2021/12/26 00:50:51;;;;;;;;;;;;;;;;;;1037125;28;1101;-35
2021/12/26 00:51:23;;;;;;;;;;;;;;;;;;1038204;28;1081;-35
2021/12/26 00:51:54;;;;;;;;;;;;;;;;;;1038464;28;1757;-40
2021/12/26 00:52:24;;;;;;;;;;;;;;;;;;1037267;28;1095;-37
2021/12/26 00:52:54;;;;;;;;;;;;;;;;;;1036827;28;1173;-36
2021/12/26 00:53:25;;;;;;;;;;;;;;;;;;1037558;28;1118;-36
2021/12/26 00:53:55;;;;;;;;;;;;;;;;;;1038195;28;999;-35
2021/12/26 00:54:25;;;;;;;;;;;;;;;;;;1037883;28;1093;-37
2021/12/26 00:54:56;;;;;;;;;;;;;;;;;;1037084;28;1212;-37
2021/12/26 00:55:27;;;;;;;;;;;;;;;;;;1037830;28;2062;-34
2021/12/26 00:55:57;;;;;;;;;;;;;;;;;;1037949;28;1308;-37
2021/12/26 00:56:28;;;;;;;;;;;;;;;;;;1037745;28;1181;-35
2021/12/26 00:56:58;;;;;;;;;;;;;;;;;;1036762;28;1201;-36
2021/12/26 00:57:29;;;;;;;;;;;;;;;;;;1037117;28;1286;-37
2021/12/26 00:57:59;;;;;;;;;;;;;;;;;;1042064;28;1130;-35
2021/12/26 00:58:30;;;;;;;;;;;;;;;;;;1037996;28;1090;-33
2021/12/26 00:59:00;;;;;;;;;;;;;;;;;;1039446;28;1292;-36
2021/12/26 00:59:31;;;;;;;;;;;;;;;;;;1039500;28;1138;-36
2021/12/26 01:00:04;;;;;;;;;;;;;;;;;;1039579;28;1148;-37
2021/12/26 01:00:36;;;;;;;;;;;;;;;;;;1043716;28;893;-34
2021/12/26 01:01:07;;;;;;;;;;;;;;;;;;1043708;28;1131;-37
2021/12/26 01:01:38;;;;;;;;;;;;;;;;;;1043641;28;870;-37
2021/12/26 01:02:09;;;;;;;;;;;;;;;;;;1043696;28;949;-38
2021/12/26 01:02:39;;;;;;;;;;;;;;;;;;1039482;28;1218;-36
2021/12/26 01:03:11;;;;;;;;;;;;;;;;;;1035308;28;975;-38
2021/12/26 01:03:43;;;;;;;;;;;;;;;;;;1030921;28;1178;-35
2021/12/26 01:04:13;;;;;;;;;;;;;;;;;;1031562;28;1164;-37
2021/12/26 01:04:44;;;;;;;;;;;;;;;;;;1035799;28;1172;-36
2021/12/26 01:05:14;;;;;;;;;;;;;;;;;;1039391;28;1005;-37
2021/12/26 01:05:47;;;;;;;;;;;;;;;;;;1035538;28;1210;-37
2021/12/26 01:06:17;;;;;;;;;;;;;;;;;;1035285;28;1157;-35
2021/12/26 01:06:48;;;;;;;;;;;;;;;;;;1035479;28;775;-34
2021/12/26 01:08:09;;;;;;;;;;;;;;;;;;1038032;28;1490;-36
2021/12/26 01:08:43;;;;;;;;;;;;;;;;;;1039498;28;1026;-37
2021/12/26 01:09:22;;;;;;;;;;;;;;;;;;1038763;28;1190;-32
2021/12/26 01:09:53;;;;;;;;;;;;;;;;;;1037758;28;1312;-35
2021/12/26 01:10:25;;;;;;;;;;;;;;;;;;1031373;28;812;-37
2021/12/26 01:11:21;;;;;;;;;;;;;;;;;;1032656;28;800;-36
2021/12/26 01:11:52;;;;;;;;;;;;;;;;;;1039261;28;1261;-36
2021/12/26 01:12:28;;;;;;;;;;;;;;;;;;1043441;28;1342;-36
2021/12/26 01:13:08;;;;;;;;;;;;;;;;;;1043648;28;1452;-36
2021/12/26 01:13:39;;;;;;;;;;;;;;;;;;1037176;28;1194;-35
2021/12/26 01:14:26;;;;;;;;;;;;;;;;;;1035201;28;1459;-36
2021/12/26 01:15:07;;;;;;;;;;;;;;;;;;1035456;28;1906;-35
2021/12/26 01:15:41;;;;;;;;;;;;;;;;;;1035426;28;1346;-36
2021/12/26 01:16:26;;;;;;;;;;;;;;;;;;1035311;28;1631;-37
2021/12/26 01:17:09;;;;;;;;;;;;;;;;;;1039509;28;1349;-36
2021/12/26 01:17:48;;;;;;;;;;;;;;;;;;1043566;28;1077;-36
2021/12/26 01:18:26;;;;;;;;;;;;;;;;;;1043604;28;1381;-37
2021/12/26 01:19:08;;;;;;;;;;;;;;;;;;1043474;28;1318;-33
2021/12/26 01:19:44;;;;;;;;;;;;;;;;;;1036520;28;1202;-36
2021/12/26 01:20:25;;;;;;;;;;;;;;;;;;1039447;28;1492;-36
2021/12/26 01:21:05;;;;;;;;;;;;;;;;;;1035308;28;1312;-35
2021/12/26 01:21:36;;;;;;;;;;;;;;;;;;1035318;28;1230;-37
2021/12/26 01:22:15;;;;;;;;;;;;;;;;;;1031229;28;1452;-37
2021/12/26 01:22:48;;;;;;;;;;;;;;;;;;1029965;28;1050;-34
2021/12/26 01:23:20;;;;;;;;;;;;;;;;;;1033096;28;830;-36
2021/12/26 01:23:52;;;;;;;;;;;;;;;;;;1035282;28;1281;-36
2021/12/26 01:24:23;;;;;;;;;;;;;;;;;;1031941;28;1275;-36
2021/12/26 01:24:56;;;;;;;;;;;;;;;;;;1035408;28;786;-36
2021/12/26 01:25:26;;;;;;;;;;;;;;;;;;1031923;28;1159;-37
2021/12/26 01:25:57;;;;;;;;;;;;;;;;;;1039445;28;1172;-37
2021/12/26 01:26:30;;;;;;;;;;;;;;;;;;1047215;28;1458;-37
2021/12/26 01:27:02;;;;;;;;;;;;;;;;;;1043642;28;815;-35
2021/12/26 01:27:36;;;;;;;;;;;;;;;;;;1043387;28;945;-37
2021/12/26 01:28:07;;;;;;;;;;;;;;;;;;1039521;28;1299;-34
2021/12/26 01:28:38;;;;;;;;;;;;;;;;;;1040230;28;823;-36
2021/12/26 01:29:10;;;;;;;;;;;;;;;;;;1039385;28;1485;-36
2021/12/26 01:29:45;;;;;;;;;;;;;;;;;;1036238;28;1352;-34
2021/12/26 01:30:15;;;;;;;;;;;;;;;;;;1043499;28;1320;-35
2021/12/26 01:30:50;;;;;;;;;;;;;;;;;;1040610;28;1458;-35
2021/12/26 01:31:23;;;;;;;;;;;;;;;;;;1035189;28;1628;-35
2021/12/26 01:31:59;;;;;;;;;;;;;;;;;;1033715;28;1350;-36
2021/12/26 01:33:01;;;;;;;;;;;;;;;;;;1028032;28;1165;-37
2021/12/26 01:33:55;;;;;;;;;;;;;;;;;;1031092;28;1233;-37
2021/12/26 01:34:35;;;;;;;;;;;;;;;;;;1035172;28;1165;-36
2021/12/26 01:35:21;;;;;;;;;;;;;;;;;;1035370;28;1918;-36
2021/12/26 01:36:04;;;;;;;;;;;;;;;;;;1035412;28;1299;-34
2021/12/26 01:36:44;;;;;;;;;;;;;;;;;;1031297;28;1153;-34
2021/12/26 01:37:24;;;;;;;;;;;;;;;;;;1031546;28;841;-35
2021/12/26 01:38:13;;;;;;;;;;;;;;;;;;1035305;28;1340;-37
2021/12/26 01:39:10;;;;;;;;;;;;;;;;;;1035361;28;1281;-37
2021/12/26 01:39:59;;;;;;;;;;;;;;;;;;1033605;28;1290;-36
2021/12/26 01:40:52;;;;;;;;;;;;;;;;;;1039352;28;874;-34
2021/12/26 01:41:42;;;;;;;;;;;;;;;;;;1036592;28;1281;-37
2021/12/26 01:42:13;;;;;;;;;;;;;;;;;;1039396;28;746;-37
2021/12/26 01:43:03;;;;;;;;;;;;;;;;;;1039614;28;782;-35
2021/12/26 01:44:04;;;;;;;;;;;;;;;;;;1037615;28;1023;-36
2021/12/26 01:44:54;;;;;;;;;;;;;;;;;;1039333;28;1356;-37
2021/12/26 01:45:26;;;;;;;;;;;;;;;;;;1039468;28;2196;-35
2021/12/26 01:46:06;;;;;;;;;;;;;;;;;;1035237;28;1507;-31
2021/12/26 01:46:39;;;;;;;;;;;;;;;;;;1035245;28;1351;-36
2021/12/26 01:47:09;;;;;;;;;;;;;;;;;;1036981;28;886;-36
2021/12/26 01:47:40;;;;;;;;;;;;;;;;;;1039741;28;1180;-34
2021/12/26 01:48:12;;;;;;;;;;;;;;;;;;1043426;28;1530;-35
2021/12/26 01:48:48;;;;;;;;;;;;;;;;;;1039294;28;1371;-36
2021/12/26 01:49:20;;;;;;;;;;;;;;;;;;1043432;28;1224;-33
2021/12/26 01:49:52;;;;;;;;;;;;;;;;;;1041859;28;1172;-34
2021/12/26 01:50:22;;;;;;;;;;;;;;;;;;1043507;28;1211;-36
2021/12/26 01:50:53;;;;;;;;;;;;;;;;;;1043025;28;1323;-35
2021/12/26 01:51:24;;;;;;;;;;;;;;;;;;1043396;28;1223;-36
2021/12/26 01:51:56;;;;;;;;;;;;;;;;;;1039255;28;1269;-36
2021/12/26 01:52:27;;;;;;;;;;;;;;;;;;1038888;28;1295;-34
2021/12/26 01:52:59;;;;;;;;;;;;;;;;;;1038659;28;1305;-36
2021/12/26 01:53:38;;;;;;;;;;;;;;;;;;1038969;28;1377;-37
2021/12/26 01:54:10;;;;;;;;;;;;;;;;;;1039301;28;1487;-37
2021/12/26 01:54:59;;;;;;;;;;;;;;;;;;1038007;28;830;-35
2021/12/26 01:55:46;;;;;;;;;;;;;;;;;;1035236;28;1914;-37
2021/12/26 01:56:17;;;;;;;;;;;;;;;;;;1039294;28;1200;-36
2021/12/26 01:56:48;;;;;;;;;;;;;;;;;;1039194;28;1321;-35
2021/12/26 01:57:18;;;;;;;;;;;;;;;;;;1039369;28;881;-36
2021/12/26 01:57:51;;;;;;;;;;;;;;;;;;1035102;28;1508;-36
2021/12/26 01:58:23;;;;;;;;;;;;;;;;;;1034978;28;1155;-36
2021/12/26 01:58:56;;;;;;;;;;;;;;;;;;1035665;28;1400;-36
2021/12/26 01:59:46;;;;;;;;;;;;;;;;;;1038418;28;1453;-37
2021/12/26 02:00:21;;;;;;;;;;;;;;;;;;1031741;28;1581;-35
2021/12/26 02:00:58;;;;;;;;;;;;;;;;;;1031117;28;684;-36
2021/12/26 02:01:29;;;;;;;;;;;;;;;;;;1033126;28;1196;-37
2021/12/26 02:02:00;;;;;;;;;;;;;;;;;;1032426;28;1156;-37
2021/12/26 02:02:30;;;;;;;;;;;;;;;;;;1031149;28;1148;-37
2021/12/26 02:03:01;;;;;;;;;;;;;;;;;;1035135;28;1333;-36
2021/12/26 02:03:31;;;;;;;;;;;;;;;;;;1035220;28;776;-36
2021/12/26 02:04:03;;;;;;;;;;;;;;;;;;1031340;28;1445;-35
2021/12/26 02:04:35;;;;;;;;;;;;;;;;;;1035351;28;878;-35
2021/12/26 02:05:06;;;;;;;;;;;;;;;;;;1035010;28;847;-35
2021/12/26 02:05:37;;;;;;;;;;;;;;;;;;1031775;28;1435;-35
2021/12/26 02:06:11;;;;;;;;;;;;;;;;;;1035028;28;1374;-34
2021/12/26 02:06:49;;;;;;;;;;;;;;;;;;1039316;28;1006;-36
2021/12/26 02:07:20;;;;;;;;;;;;;;;;;;1040820;28;1325;-36
2021/12/26 02:07:52;;;;;;;;;;;;;;;;;;1037851;28;1443;-37
2021/12/26 02:08:23;;;;;;;;;;;;;;;;;;1038925;28;1148;-36
2021/12/26 02:08:55;;;;;;;;;;;;;;;;;;1035229;28;795;-36
2021/12/26 02:09:26;;;;;;;;;;;;;;;;;;1039523;28;870;-35
2021/12/26 02:09:59;;;;;;;;;;;;;;;;;;1038474;28;1269;-34
2021/12/26 02:10:30;;;;;;;;;;;;;;;;;;1031070;28;1601;-36
2021/12/26 02:11:02;;;;;;;;;;;;;;;;;;1031168;28;1286;-35
2021/12/26 02:11:33;;;;;;;;;;;;;;;;;;1031425;28;1255;-35
2021/12/26 02:12:05;;;;;;;;;;;;;;;;;;1030994;28;990;-37
2021/12/26 02:12:36;;;;;;;;;;;;;;;;;;1031836;28;1179;-36
2021/12/26 02:13:06;;;;;;;;;;;;;;;;;;1031028;28;1318;-37
2021/12/26 02:13:39;;;;;;;;;;;;;;;;;;1035406;28;1143;-36
2021/12/26 02:14:12;;;;;;;;;;;;;;;;;;1034413;28;1417;-36
2021/12/26 02:15:03;;;;;;;;;;;;;;;;;;1030772;28;2050;-37
2021/12/26 02:15:41;;;;;;;;;;;;;;;;;;1034570;28;1322;-37
2021/12/26 02:16:15;;;;;;;;;;;;;;;;;;1035082;28;1199;-35
2021/12/26 02:16:46;;;;;;;;;;;;;;;;;;1035265;28;942;-36
2021/12/26 02:17:17;;;;;;;;;;;;;;;;;;1031061;28;1329;-37
2021/12/26 02:17:48;;;;;;;;;;;;;;;;;;1031121;28;1239;-35
2021/12/26 02:18:19;;;;;;;;;;;;;;;;;;1031085;28;1160;-35
2021/12/26 02:18:49;;;;;;;;;;;;;;;;;;1031389;28;1298;-36
2021/12/26 02:19:20;;;;;;;;;;;;;;;;;;1035228;28;906;-34
2021/12/26 02:19:53;;;;;;;;;;;;;;;;;;1038963;28;1428;-37
2021/12/26 02:21:11;;;;;;;;;;;;;;;;;;1035110;28;1156;-36
2021/12/26 02:22:21;;;;;;;;;;;;;;;;;;1041875;28;1327;-36
2021/12/26 02:22:57;;;;;;;;;;;;;;;;;;1043483;28;1119;-35
2021/12/26 02:23:40;;;;;;;;;;;;;;;;;;1039129;28;810;-35
2021/12/26 02:24:21;;;;;;;;;;;;;;;;;;1035010;28;1210;-37
2021/12/26 02:25:32;;;;;;;;;;;;;;;;;;1034992;28;1650;-38
2021/12/26 02:27:42;;;;;;;;;;;;;;;;;;1039257;28;954;-34
2021/12/26 02:28:13;;;;;;;;;;;;;;;;;;1035099;28;1254;-37
2021/12/26 02:28:44;;;;;;;;;;;;;;;;;;1038998;28;839;-37
2021/12/26 02:29:15;;;;;;;;;;;;;;;;;;1039143;28;1163;-36
2021/12/26 02:29:45;;;;;;;;;;;;;;;;;;1039477;28;1660;-37
2021/12/26 02:30:16;;;;;;;;;;;;;;;;;;1039154;28;1109;-37
2021/12/26 02:30:51;;;;;;;;;;;;;;;;;;1039160;28;1147;-35
2021/12/26 02:31:21;;;;;;;;;;;;;;;;;;1039256;28;862;-35
2021/12/26 02:31:52;;;;;;;;;;;;;;;;;;1039755;28;894;-37
2021/12/26 02:32:23;;;;;;;;;;;;;;;;;;1043031;28;925;-36
2021/12/26 02:32:57;;;;;;;;;;;;;;;;;;1039200;28;1266;-37
2021/12/26 02:33:28;;;;;;;;;;;;;;;;;;1035052;28;1107;-36
2021/12/26 02:33:58;;;;;;;;;;;;;;;;;;1035187;28;981;-37
2021/12/26 02:34:28;;;;;;;;;;;;;;;;;;1031411;28;1368;-33
2021/12/26 02:34:59;;;;;;;;;;;;;;;;;;1031147;28;1141;-37
2021/12/26 02:35:30;;;;;;;;;;;;;;;;;;1035057;28;1902;-34
2021/12/26 02:36:00;;;;;;;;;;;;;;;;;;1031218;28;1266;-38
2021/12/26 02:36:31;;;;;;;;;;;;;;;;;;1035037;28;1156;-36
2021/12/26 02:37:02;;;;;;;;;;;;;;;;;;1039171;28;1106;-37
2021/12/26 02:37:33;;;;;;;;;;;;;;;;;;1038847;28;1266;-37
2021/12/26 02:38:04;;;;;;;;;;;;;;;;;;1039145;28;906;-36
2021/12/26 02:38:35;;;;;;;;;;;;;;;;;;1038395;28;1173;-37
2021/12/26 02:39:06;;;;;;;;;;;;;;;;;;1035089;28;775;-34
2021/12/26 02:39:36;;;;;;;;;;;;;;;;;;1035286;28;1152;-36
2021/12/26 02:40:07;;;;;;;;;;;;;;;;;;1039341;28;913;-36
2021/12/26 02:40:38;;;;;;;;;;;;;;;;;;1039185;28;1523;-34
2021/12/26 02:41:09;;;;;;;;;;;;;;;;;;1039006;28;1406;-33
2021/12/26 02:41:39;;;;;;;;;;;;;;;;;;1039219;28;934;-36
2021/12/26 02:42:11;;;;;;;;;;;;;;;;;;1039009;28;1295;-35
2021/12/26 02:42:42;;;;;;;;;;;;;;;;;;1039074;28;1163;-36
2021/12/26 02:43:14;;;;;;;;;;;;;;;;;;1039243;28;957;-32
2021/12/26 02:43:45;;;;;;;;;;;;;;;;;;1034925;28;1254;-34
2021/12/26 02:44:15;;;;;;;;;;;;;;;;;;1031403;28;1112;-36
2021/12/26 02:44:47;;;;;;;;;;;;;;;;;;1030965;28;1361;-31
2021/12/26 02:45:17;;;;;;;;;;;;;;;;;;1027199;28;1373;-36
2021/12/26 02:45:48;;;;;;;;;;;;;;;;;;1031257;28;1439;-36
2021/12/26 02:46:19;;;;;;;;;;;;;;;;;;1031151;28;1283;-36
2021/12/26 02:46:50;;;;;;;;;;;;;;;;;;1031088;28;1340;-35
2021/12/26 02:47:31;;;;;;;;;;;;;;;;;;1035121;28;992;-35
2021/12/26 02:48:02;;;;;;;;;;;;;;;;;;1036505;28;930;-36
2021/12/26 02:48:34;;;;;;;;;;;;;;;;;;1036886;28;1162;-36
2021/12/26 02:49:05;;;;;;;;;;;;;;;;;;1039159;28;772;-34
2021/12/26 02:49:36;;;;;;;;;;;;;;;;;;1039069;28;1253;-37
2021/12/26 02:50:09;;;;;;;;;;;;;;;;;;1039313;28;850;-35
2021/12/26 02:50:40;;;;;;;;;;;;;;;;;;1043243;28;1149;-34
2021/12/26 02:51:11;;;;;;;;;;;;;;;;;;1042445;28;988;-36
2021/12/26 02:51:41;;;;;;;;;;;;;;;;;;1039179;28;1220;-32
2021/12/26 02:52:12;;;;;;;;;;;;;;;;;;1039097;28;1205;-34
2021/12/26 02:52:43;;;;;;;;;;;;;;;;;;1039312;28;874;-36
2021/12/26 02:53:20;;;;;;;;;;;;;;;;;;1034712;28;1118;-35
2021/12/26 02:53:51;;;;;;;;;;;;;;;;;;1035222;28;866;-37
2021/12/26 02:54:25;;;;;;;;;;;;;;;;;;1035084;28;1119;-36
2021/12/26 02:54:57;;;;;;;;;;;;;;;;;;1036527;28;862;-34
2021/12/26 02:55:27;;;;;;;;;;;;;;;;;;1034838;28;1914;-35
2021/12/26 02:55:59;;;;;;;;;;;;;;;;;;1035170;28;803;-36
2021/12/26 02:56:30;;;;;;;;;;;;;;;;;;1031001;28;1371;-37
2021/12/26 02:57:00;;;;;;;;;;;;;;;;;;1031364;28;815;-36
2021/12/26 02:57:31;;;;;;;;;;;;;;;;;;1034850;28;1398;-35
2021/12/26 02:58:03;;;;;;;;;;;;;;;;;;1035215;28;1234;-34
2021/12/26 02:58:35;;;;;;;;;;;;;;;;;;1034992;28;1343;-36
2021/12/26 02:59:06;;;;;;;;;;;;;;;;;;1030301;28;1279;-37
2021/12/26 02:59:37;;;;;;;;;;;;;;;;;;1027030;28;1832;-36
2021/12/26 03:00:09;;;;;;;;;;;;;;;;;;1026898;28;1236;-37
2021/12/26 03:00:43;;;;;;;;;;;;;;;;;;1027336;28;1286;-32
2021/12/26 03:01:18;;;;;;;;;;;;;;;;;;1030996;28;898;-37
2021/12/26 03:01:49;;;;;;;;;;;;;;;;;;1028322;28;1158;-37
2021/12/26 03:02:20;;;;;;;;;;;;;;;;;;1028170;28;1474;-36
2021/12/26 03:02:52;;;;;;;;;;;;;;;;;;1030932;28;835;-36
2021/12/26 03:03:23;;;;;;;;;;;;;;;;;;1031356;28;977;-36
2021/12/26 03:03:53;;;;;;;;;;;;;;;;;;1031275;28;1298;-36
2021/12/26 03:04:24;;;;;;;;;;;;;;;;;;1034954;28;775;-35
2021/12/26 03:04:54;;;;;;;;;;;;;;;;;;1035223;28;839;-31
2021/12/26 03:05:25;;;;;;;;;;;;;;;;;;1034891;28;823;-36
2021/12/26 03:05:58;;;;;;;;;;;;;;;;;;1035063;28;1320;-36
2021/12/26 03:06:35;;;;;;;;;;;;;;;;;;1034956;28;954;-37
2021/12/26 03:07:06;;;;;;;;;;;;;;;;;;1035074;28;814;-38
2021/12/26 03:07:37;;;;;;;;;;;;;;;;;;1035002;28;850;-35
2021/12/26 03:08:08;;;;;;;;;;;;;;;;;;1034839;28;1139;-37
2021/12/26 03:08:38;;;;;;;;;;;;;;;;;;1031009;28;1358;-36
2021/12/26 03:09:09;;;;;;;;;;;;;;;;;;1030927;28;808;-35
2021/12/26 03:09:47;;;;;;;;;;;;;;;;;;1030929;28;1553;-32
2021/12/26 03:10:22;;;;;;;;;;;;;;;;;;1032045;28;1383;-36
2021/12/26 03:10:54;;;;;;;;;;;;;;;;;;1035194;28;946;-33
2021/12/26 03:11:24;;;;;;;;;;;;;;;;;;1035155;28;914;-34
2021/12/26 03:11:55;;;;;;;;;;;;;;;;;;1035047;28;965;-34
2021/12/26 03:12:31;;;;;;;;;;;;;;;;;;1034921;28;882;-35
2021/12/26 03:13:02;;;;;;;;;;;;;;;;;;1035140;28;961;-35
2021/12/26 03:13:33;;;;;;;;;;;;;;;;;;1031844;28;1164;-36
2021/12/26 03:14:05;;;;;;;;;;;;;;;;;;1035117;28;771;-36
2021/12/26 03:14:36;;;;;;;;;;;;;;;;;;1030647;28;1321;-37
2021/12/26 03:15:10;;;;;;;;;;;;;;;;;;1031310;28;1915;-34
2021/12/26 03:15:41;;;;;;;;;;;;;;;;;;1034922;28;1243;-35
2021/12/26 03:16:12;;;;;;;;;;;;;;;;;;1035093;28;850;-37
2021/12/26 03:16:48;;;;;;;;;;;;;;;;;;1035562;28;929;-33
2021/12/26 03:17:19;;;;;;;;;;;;;;;;;;1034852;28;1175;-36
2021/12/26 03:17:50;;;;;;;;;;;;;;;;;;1035077;28;831;-37
2021/12/26 03:18:21;;;;;;;;;;;;;;;;;;1034920;28;1204;-34
2021/12/26 03:18:55;;;;;;;;;;;;;;;;;;1035097;28;996;-32
2021/12/26 03:19:26;;;;;;;;;;;;;;;;;;1034849;28;1524;-37
2021/12/26 03:19:56;;;;;;;;;;;;;;;;;;1035180;28;819;-31
2021/12/26 03:20:28;;;;;;;;;;;;;;;;;;1034867;28;1510;-33
2021/12/26 03:20:58;;;;;;;;;;;;;;;;;;1031207;28;839;-37
2021/12/26 03:21:29;;;;;;;;;;;;;;;;;;1030747;28;871;-34
2021/12/26 03:21:59;;;;;;;;;;;;;;;;;;1030790;28;972;-36
2021/12/26 03:22:29;;;;;;;;;;;;;;;;;;1026823;28;963;-36
2021/12/26 03:23:01;;;;;;;;;;;;;;;;;;1035036;28;957;-36
2021/12/26 03:23:31;;;;;;;;;;;;;;;;;;1034962;28;1232;-33
2021/12/26 03:24:02;;;;;;;;;;;;;;;;;;1034985;28;792;-36
2021/12/26 03:24:32;;;;;;;;;;;;;;;;;;1034986;28;801;-34
2021/12/26 03:25:04;;;;;;;;;;;;;;;;;;1034971;28;1270;-35
2021/12/26 03:25:35;;;;;;;;;;;;;;;;;;1034934;28;1469;-36
2021/12/26 03:26:06;;;;;;;;;;;;;;;;;;1035099;28;965;-36
2021/12/26 03:26:36;;;;;;;;;;;;;;;;;;1030638;28;1207;-34
2021/12/26 03:27:07;;;;;;;;;;;;;;;;;;1034759;28;1498;-33
2021/12/26 03:27:38;;;;;;;;;;;;;;;;;;1038833;28;1117;-32
2021/12/26 03:28:09;;;;;;;;;;;;;;;;;;1039206;28;1401;-36
2021/12/26 03:28:40;;;;;;;;;;;;;;;;;;1042969;28;773;-36
2021/12/26 03:29:10;;;;;;;;;;;;;;;;;;1034827;28;1259;-36
2021/12/26 03:29:41;;;;;;;;;;;;;;;;;;1035002;28;922;-36
2021/12/26 03:30:20;;;;;;;;;;;;;;;;;;1035040;28;1314;-31
2021/12/26 03:30:52;;;;;;;;;;;;;;;;;;1034764;28;1314;-36
2021/12/26 03:31:22;;;;;;;;;;;;;;;;;;1030973;28;1224;-34
2021/12/26 03:31:53;;;;;;;;;;;;;;;;;;1031347;28;823;-35
2021/12/26 03:32:23;;;;;;;;;;;;;;;;;;1035290;28;960;-32
2021/12/26 03:32:54;;;;;;;;;;;;;;;;;;1034973;28;1160;-36
2021/12/26 03:33:25;;;;;;;;;;;;;;;;;;1043037;28;1386;-34
2021/12/26 03:33:56;;;;;;;;;;;;;;;;;;1039121;28;1224;-33
2021/12/26 03:34:26;;;;;;;;;;;;;;;;;;1038922;28;1199;-36
2021/12/26 03:34:57;;;;;;;;;;;;;;;;;;1034985;28;1227;-34
2021/12/26 03:35:28;;;;;;;;;;;;;;;;;;1035035;28;1910;-32
2021/12/26 03:35:59;;;;;;;;;;;;;;;;;;1039063;28;874;-33
2021/12/26 03:36:29;;;;;;;;;;;;;;;;;;1034921;28;1179;-34
2021/12/26 03:37:00;;;;;;;;;;;;;;;;;;1035061;28;1449;-34
2021/12/26 03:37:32;;;;;;;;;;;;;;;;;;1034886;28;1317;-36
2021/12/26 03:38:08;;;;;;;;;;;;;;;;;;1030857;28;919;-36
2021/12/26 03:38:54;;;;;;;;;;;;;;;;;;1033892;28;1177;-35
2021/12/26 03:39:35;;;;;;;;;;;;;;;;;;1034878;28;1437;-36
2021/12/26 03:40:06;;;;;;;;;;;;;;;;;;1038500;28;1175;-35
2021/12/26 03:40:37;;;;;;;;;;;;;;;;;;1034931;28;1525;-37
2021/12/26 03:41:08;;;;;;;;;;;;;;;;;;1035109;28;839;-34
2021/12/26 03:41:41;;;;;;;;;;;;;;;;;;1034784;28;1207;-34
2021/12/26 03:42:11;;;;;;;;;;;;;;;;;;1031327;28;782;-32
2021/12/26 03:42:44;;;;;;;;;;;;;;;;;;1033941;28;1069;-32
2021/12/26 03:43:15;;;;;;;;;;;;;;;;;;1031438;28;961;-36
2021/12/26 03:43:47;;;;;;;;;;;;;;;;;;1031408;28;1164;-37
2021/12/26 03:44:18;;;;;;;;;;;;;;;;;;1031248;28;1290;-37
2021/12/26 03:44:49;;;;;;;;;;;;;;;;;;1034795;28;1329;-35
2021/12/26 03:45:20;;;;;;;;;;;;;;;;;;1031159;28;910;-35
2021/12/26 03:45:51;;;;;;;;;;;;;;;;;;1035095;28;786;-36
2021/12/26 03:46:22;;;;;;;;;;;;;;;;;;1043173;28;1318;-36
2021/12/26 03:46:52;;;;;;;;;;;;;;;;;;1043084;28;865;-33
2021/12/26 03:47:23;;;;;;;;;;;;;;;;;;1038953;28;1400;-35
2021/12/26 03:47:53;;;;;;;;;;;;;;;;;;1038869;28;800;-36
2021/12/26 03:48:25;;;;;;;;;;;;;;;;;;1038961;28;830;-37
2021/12/26 03:48:55;;;;;;;;;;;;;;;;;;1035141;28;1439;-37
2021/12/26 03:49:27;;;;;;;;;;;;;;;;;;1034860;28;1334;-36
2021/12/26 03:49:57;;;;;;;;;;;;;;;;;;1034936;28;802;-35
2021/12/26 03:50:30;;;;;;;;;;;;;;;;;;1031145;28;1283;-35
2021/12/26 03:51:02;;;;;;;;;;;;;;;;;;1031267;28;1345;-38
2021/12/26 03:51:33;;;;;;;;;;;;;;;;;;1034992;28;1330;-35
2021/12/26 03:52:05;;;;;;;;;;;;;;;;;;1031559;28;1342;-35
2021/12/26 03:52:37;;;;;;;;;;;;;;;;;;1031594;28;1578;-35
2021/12/26 03:53:08;;;;;;;;;;;;;;;;;;1034682;28;1376;-33